Time;durP1;ratioP1;P1;durP2;ratioP2;P2;SDS_P1;SDS_P2;PMS_P1;PMS_P2;Temp;Humidity;BMP_temperature;BMP_pressure;BME280_temperature;BME280_humidity;BME280_pressure;Samples;Min_cycle;Max_cycle;Signal;HPM_P1;HPM_P2
2022/12/09 00:00:10;;;;;;;;;;;;;;;27.94;26.31;100620.09;5017147;28;1184;-23
2022/12/09 00:02:35;;;;;;;;;;;;;;;27.73;26.72;100613.63;5017396;28;1163;-22
2022/12/09 00:05:00;;;;;;;;;;;;;;;27.90;27.12;100618.81;5017031;28;1156;-22
2022/12/09 00:07:26;;;;;;;;;;;;;;;28.16;26.34;100620.94;5017284;28;1192;-22
2022/12/09 00:09:51;;;;;;;;;;;;;;;28.02;26.13;100622.69;5016958;28;1969;-21
2022/12/09 00:12:16;;;;;;;;;;;;;;;27.76;26.42;100629.47;5016726;28;1191;-22
2022/12/09 00:14:42;;;;;;;;;;;;;;;27.91;26.82;100637.53;5017339;28;1144;-22
2022/12/09 00:17:07;;;;;;;;;;;;;;;28.17;26.58;100611.81;5017109;28;1502;-23
2022/12/09 00:19:33;;;;;;;;;;;;;;;28.34;26.07;100622.41;5016542;28;1434;-22
2022/12/09 00:21:58;;;;;;;;;;;;;;;27.94;26.21;100623.66;5017045;28;1148;-22
2022/12/09 00:24:23;;;;;;;;;;;;;;;27.91;26.62;100620.50;5006883;28;1167;-22
2022/12/09 00:26:49;;;;;;;;;;;;;;;28.14;26.81;100617.59;5016907;28;1140;-22
2022/12/09 00:29:14;;;;;;;;;;;;;;;28.31;26.55;100620.88;5016750;28;1906;-23
2022/12/09 00:31:39;;;;;;;;;;;;;;;28.05;26.17;100621.44;5017279;28;1108;-22
2022/12/09 00:34:06;;;;;;;;;;;;;;;27.81;26.36;100618.09;5016697;28;1255;-23
2022/12/09 00:36:31;;;;;;;;;;;;;;;27.91;27.12;100623.19;5016686;28;1194;-22
2022/12/09 00:38:56;;;;;;;;;;;;;;;28.23;26.39;100624.56;5016557;28;1414;-21
2022/12/09 00:41:22;;;;;;;;;;;;;;;28.37;26.07;100630.13;5016771;28;1140;-23
2022/12/09 00:43:47;;;;;;;;;;;;;;;27.91;26.38;100626.72;5016753;28;1132;-22
2022/12/09 00:46:13;;;;;;;;;;;;;;;27.81;26.88;100632.44;5016867;28;1211;-23
2022/12/09 00:48:38;;;;;;;;;;;;;;;28.08;26.71;100630.03;5015826;28;1120;-22
2022/12/09 00:51:04;;;;;;;;;;;;;;;28.29;26.52;100628.34;5016718;28;1953;-25
2022/12/09 00:53:29;;;;;;;;;;;;;;;28.07;26.08;100622.09;5016662;28;1211;-23
2022/12/09 00:55:54;;;;;;;;;;;;;;;27.77;26.51;100624.91;5016549;28;1223;-24
2022/12/09 00:58:20;;;;;;;;;;;;;;;28.02;26.67;100621.84;5016583;28;1144;-23
2022/12/09 01:00:45;;;;;;;;;;;;;;;28.22;26.41;100625.59;5016141;28;915;-23
2022/12/09 01:03:11;;;;;;;;;;;;;;;28.40;26.42;100623.47;5016708;28;1120;-22
2022/12/09 01:05:37;;;;;;;;;;;;;;;28.01;26.12;100618.28;5017092;28;1171;-22
2022/12/09 01:08:02;;;;;;;;;;;;;;;27.83;26.62;100619.56;5016530;28;1160;-23
2022/12/09 01:10:27;;;;;;;;;;;;;;;28.06;26.50;100615.84;5015830;28;1898;-22
2022/12/09 01:12:53;;;;;;;;;;;;;;;28.25;26.41;100613.53;5016322;28;893;-22
2022/12/09 01:15:18;;;;;;;;;;;;;;;28.14;26.26;100623.03;5016457;28;1150;-23
2022/12/09 01:17:43;;;;;;;;;;;;;;;27.83;26.30;100621.44;5016359;28;1156;-22
2022/12/09 01:20:08;;;;;;;;;;;;;;;27.87;26.72;100630.84;5016228;28;1172;-22
2022/12/09 01:22:34;;;;;;;;;;;;;;;28.08;26.56;100631.88;5015955;28;1160;-22
2022/12/09 01:24:59;;;;;;;;;;;;;;;28.20;26.44;100622.22;5013256;28;1304;-22
2022/12/09 01:27:25;;;;;;;;;;;;;;;27.90;26.14;100624.22;5016296;28;969;-23
2022/12/09 01:29:50;;;;;;;;;;;;;;;27.77;26.96;100622.19;5015833;28;1979;-22
2022/12/09 01:32:15;;;;;;;;;;;;;;;28.07;26.71;100622.09;5015803;28;1159;-22
2022/12/09 01:34:40;;;;;;;;;;;;;;;28.14;26.55;100623.03;5016360;28;1069;-22
2022/12/09 01:37:06;;;;;;;;;;;;;;;27.89;26.15;100626.09;5016117;28;1000;-22
2022/12/09 01:39:31;;;;;;;;;;;;;;;27.76;26.92;100621.34;5016266;28;1199;-23
2022/12/09 01:41:56;;;;;;;;;;;;;;;28.01;26.60;100614.78;5015740;28;966;-23
2022/12/09 01:44:25;;;;;;;;;;;;;;;28.18;26.24;100624.28;5016582;28;1140;-22
2022/12/09 01:46:54;;;;;;;;;;;;;;;28.02;26.20;100622.69;5015632;28;1227;-23
2022/12/09 01:49:21;;;;;;;;;;;;;;;27.80;26.48;100614.56;5015860;28;1910;-22
2022/12/09 01:51:48;;;;;;;;;;;;;;;27.95;26.75;100621.78;5014872;28;1164;-22
2022/12/09 01:54:13;;;;;;;;;;;;;;;28.15;26.32;100618.41;5016362;28;1285;-22
2022/12/09 01:56:39;;;;;;;;;;;;;;;28.05;26.28;100626.84;5014814;28;1236;-23
2022/12/09 01:59:05;;;;;;;;;;;;;;;27.77;26.31;100623.03;5016714;28;1168;-22
2022/12/09 02:01:31;;;;;;;;;;;;;;;27.95;26.52;100619.06;5013986;28;964;-22
2022/12/09 02:03:56;;;;;;;;;;;;;;;28.19;26.19;100607.06;5016049;28;1175;-22
2022/12/09 02:06:21;;;;;;;;;;;;;;;28.15;26.00;100618.41;5015905;28;1389;-23
2022/12/09 02:08:47;;;;;;;;;;;;;;;27.85;26.51;100617.53;5015772;28;1152;-22
2022/12/09 02:11:31;;;;;;;;;;;;;;;27.84;26.55;100628.53;5014523;28;1910;-23
2022/12/09 02:14:03;;;;;;;;;;;;;;;28.19;26.43;100630.53;5013626;28;1093;-22
2022/12/09 02:16:29;;;;;;;;;;;;;;;28.26;26.14;100636.03;5014404;28;1181;-22
2022/12/09 02:19:01;;;;;;;;;;;;;;;27.92;26.29;100633.81;5017882;28;1161;-23
2022/12/09 02:21:29;;;;;;;;;;;;;;;27.75;26.65;100644.00;5019528;28;1144;-22
2022/12/09 02:24:05;;;;;;;;;;;;;;;28.12;26.65;100633.19;5016200;28;1209;-24
2022/12/09 02:26:34;;;;;;;;;;;;;;;28.03;26.03;100628.94;5018122;28;1181;-22
2022/12/09 02:28:59;;;;;;;;;;;;;;;27.75;26.52;100620.53;5017782;28;1898;-22
2022/12/09 02:31:28;;;;;;;;;;;;;;;27.90;26.67;100614.25;5018977;28;1195;-22
2022/12/09 02:34:12;;;;;;;;;;;;;;;28.14;26.31;100603.25;5018827;28;1168;-23
2022/12/09 02:37:00;;;;;;;;;;;;;;;28.18;25.78;100602.66;5018831;28;1124;-22
2022/12/09 02:39:34;;;;;;;;;;;;;;;27.88;26.11;100597.38;5012996;28;1938;-23
2022/12/09 02:41:59;;;;;;;;;;;;;;;27.99;26.70;100587.94;5004620;28;1138;-22
2022/12/09 02:44:24;;;;;;;;;;;;;;;28.22;26.13;100598.53;5018719;28;1179;-22
2022/12/09 02:46:50;;;;;;;;;;;;;;;28.07;26.13;100604.03;5017220;28;1161;-23
2022/12/09 02:49:15;;;;;;;;;;;;;;;27.82;26.23;100607.09;5017703;28;1906;-22
2022/12/09 02:51:41;;;;;;;;;;;;;;;27.94;26.77;100609.28;5017297;28;1121;-22
2022/12/09 02:54:13;;;;;;;;;;;;;;;28.15;26.26;100613.00;5016921;28;1263;-22
2022/12/09 02:56:39;;;;;;;;;;;;;;;27.95;26.22;100613.66;5017015;28;1336;-23
2022/12/09 02:59:04;;;;;;;;;;;;;;;27.80;26.36;100592.09;5018666;28;1426;-22
2022/12/09 03:02:02;;;;;;;;;;;;;;;27.99;26.50;100582.53;5016174;28;1517;-24
2022/12/09 03:04:27;;;;;;;;;;;;;;;28.25;26.49;100594.59;4974538;28;1147;-22
2022/12/09 03:06:53;;;;;;;;;;;;;;;28.05;25.97;100607.94;5017316;28;1128;-22
2022/12/09 03:09:29;;;;;;;;;;;;;;;27.80;26.24;100600.19;5018160;28;1960;-22
2022/12/09 03:11:55;;;;;;;;;;;;;;;28.12;26.68;100611.53;5018236;28;1136;-23
2022/12/09 03:14:22;;;;;;;;;;;;;;;28.24;26.05;100611.88;5016652;28;1227;-23
2022/12/09 03:16:50;;;;;;;;;;;;;;;27.89;26.03;100617.97;5015305;28;1111;-23
2022/12/09 03:19:18;;;;;;;;;;;;;;;27.84;26.61;100623.94;5018481;28;1172;-22
2022/12/09 03:21:44;;;;;;;;;;;;;;;28.17;26.47;100622.63;5017361;28;1180;-22
2022/12/09 03:24:10;;;;;;;;;;;;;;;28.29;26.22;100625.66;5017204;28;1085;-22
2022/12/09 03:26:36;;;;;;;;;;;;;;;27.96;26.42;100628.88;5016945;28;1145;-23
2022/12/09 03:29:01;;;;;;;;;;;;;;;27.81;26.62;100624.31;5017078;28;1968;-23
2022/12/09 03:31:27;;;;;;;;;;;;;;;28.09;26.47;100637.09;5016744;28;1236;-22
2022/12/09 03:33:52;;;;;;;;;;;;;;;28.27;26.00;100633.13;5017004;28;1161;-22
2022/12/09 03:36:18;;;;;;;;;;;;;;;27.91;26.53;100639.41;5016663;28;1216;-23
2022/12/09 03:38:43;;;;;;;;;;;;;;;27.83;26.87;100643.06;5016287;28;1247;-22
2022/12/09 03:41:15;;;;;;;;;;;;;;;28.16;26.42;100647.16;5016484;28;1169;-22
2022/12/09 03:43:41;;;;;;;;;;;;;;;28.31;26.16;100647.09;5016544;28;1168;-23
2022/12/09 03:46:07;;;;;;;;;;;;;;;27.99;26.14;100642.00;5017672;28;1132;-23
2022/12/09 03:48:32;;;;;;;;;;;;;;;27.11;26.50;100635.50;5016422;28;1125;-22
2022/12/09 03:51:09;;;;;;;;;;;;;;;25.82;28.45;100640.50;5017309;28;1967;-22
2022/12/09 03:53:42;;;;;;;;;;;;;;;25.10;29.29;100640.41;5016385;28;1165;-22
2022/12/09 03:56:07;;;;;;;;;;;;;;;24.67;30.17;100641.47;5014199;28;1109;-28
2022/12/09 03:58:33;;;;;;;;;;;;;;;25.38;29.45;100645.38;5017595;28;1199;-24
2022/12/09 04:00:58;;;;;;;;;;;;;;;26.22;28.30;100652.06;5015569;28;1200;-25
2022/12/09 04:03:25;;;;;;;;;;;;;;;26.28;27.79;100648.66;5007654;28;1155;-25
2022/12/09 04:05:50;;;;;;;;;;;;;;;26.32;27.60;100643.72;5012555;28;1235;-25
2022/12/09 04:08:15;;;;;;;;;;;;;;;26.39;27.20;100635.78;5017011;28;1541;-25
2022/12/09 04:10:40;;;;;;;;;;;;;;;26.45;27.74;100637.75;5017336;28;1906;-24
2022/12/09 04:13:06;;;;;;;;;;;;;;;26.56;27.42;100638.34;5016523;28;878;-25
2022/12/09 04:15:31;;;;;;;;;;;;;;;26.62;27.17;100643.88;5016683;28;1216;-24
2022/12/09 04:17:57;;;;;;;;;;;;;;;26.48;27.07;100648.19;5017625;28;1144;-25
2022/12/09 04:20:22;;;;;;;;;;;;;;;26.43;27.67;100641.63;5017348;28;1227;-24
2022/12/09 04:22:47;;;;;;;;;;;;;;;26.36;27.53;100645.06;5017273;28;1180;-25
2022/12/09 04:25:12;;;;;;;;;;;;;;;26.36;27.16;100646.94;5016959;28;1218;-24
2022/12/09 04:27:38;;;;;;;;;;;;;;;26.21;27.22;100647.69;5016774;28;1136;-26
2022/12/09 04:30:03;;;;;;;;;;;;;;;26.25;27.09;100640.06;5016888;28;2025;-25
2022/12/09 04:32:30;;;;;;;;;;;;;;;26.24;27.50;100639.22;5017017;28;1223;-27
2022/12/09 04:34:55;;;;;;;;;;;;;;;26.13;27.08;100645.03;5016887;28;1179;-23
2022/12/09 04:37:20;;;;;;;;;;;;;;;26.20;27.35;100645.16;5016641;28;1215;-26
2022/12/09 04:39:46;;;;;;;;;;;;;;;26.25;27.55;100648.16;5016534;28;1135;-24
2022/12/09 04:42:11;;;;;;;;;;;;;;;26.12;27.37;100646.91;5016952;28;1168;-24
2022/12/09 04:44:36;;;;;;;;;;;;;;;26.20;27.21;100646.00;5016325;28;1175;-25
2022/12/09 04:47:03;;;;;;;;;;;;;;;26.09;27.27;100647.25;5016561;28;1123;-24
2022/12/09 04:49:28;;;;;;;;;;;;;;;26.00;27.72;100646.47;5016431;28;1969;-25
2022/12/09 04:51:53;;;;;;;;;;;;;;;26.33;27.40;100644.59;5006246;28;1192;-24
2022/12/09 04:54:19;;;;;;;;;;;;;;;26.83;26.76;100646.84;5005897;28;1108;-24
2022/12/09 04:56:44;;;;;;;;;;;;;;;25.96;27.84;100642.44;5011947;28;1215;-23
2022/12/09 04:59:09;;;;;;;;;;;;;;;25.43;28.72;100637.63;5014873;28;1010;-24
2022/12/09 05:01:35;;;;;;;;;;;;;;;26.13;27.98;100639.66;5016389;28;1199;-28
2022/12/09 05:04:00;;;;;;;;;;;;;;;26.74;27.05;100646.13;5016631;28;1124;-26
2022/12/09 05:06:25;;;;;;;;;;;;;;;27.06;26.74;100646.81;5016384;28;1199;-25
2022/12/09 05:08:50;;;;;;;;;;;;;;;27.21;26.50;100646.84;5016180;28;1140;-24
2022/12/09 05:11:16;;;;;;;;;;;;;;;27.32;26.38;100648.25;5016510;28;1910;-25
2022/12/09 05:13:42;;;;;;;;;;;;;;;26.60;26.99;100647.75;5015811;28;1155;-26
2022/12/09 05:16:09;;;;;;;;;;;;;;;26.35;26.86;100651.50;5009732;28;1100;-26
2022/12/09 05:18:34;;;;;;;;;;;;;;;26.24;26.85;100657.28;5009197;28;1184;-24
2022/12/09 05:21:03;;;;;;;;;;;;;;;26.16;27.08;100663.53;5015999;28;1144;-26
2022/12/09 05:23:28;;;;;;;;;;;;;;;26.29;27.55;100658.41;5016427;28;1104;-25
2022/12/09 05:25:55;;;;;;;;;;;;;;;27.04;26.38;100657.00;5015845;28;1207;-23
2022/12/09 05:28:20;;;;;;;;;;;;;;;27.35;26.06;100666.78;5016210;28;1128;-23
2022/12/09 05:30:45;;;;;;;;;;;;;;;27.40;25.93;100663.50;5016270;28;1948;-24
2022/12/09 05:33:11;;;;;;;;;;;;;;;27.55;26.08;100673.44;5015978;28;1167;-27
2022/12/09 05:35:36;;;;;;;;;;;;;;;27.63;26.25;100682.31;5011369;28;1133;-24
2022/12/09 05:38:01;;;;;;;;;;;;;;;28.48;25.15;100685.56;5008896;28;1224;-25
2022/12/09 05:40:26;;;;;;;;;;;;;;;29.04;24.31;100680.41;4995942;28;1357;-27
2022/12/09 05:42:52;;;;;;;;;;;;;;;29.23;24.12;100680.75;5001633;28;1271;-25
2022/12/09 05:45:17;;;;;;;;;;;;;;;29.33;24.00;100684.75;4995706;28;1215;-25
2022/12/09 05:47:42;;;;;;;;;;;;;;;29.52;23.92;100687.78;4996481;28;1188;-25
2022/12/09 05:50:08;;;;;;;;;;;;;;;29.50;23.94;100694.44;4995659;28;1914;-25
2022/12/09 05:52:34;;;;;;;;;;;;;;;29.55;24.04;100697.38;4996783;28;1248;-25
2022/12/09 05:54:59;;;;;;;;;;;;;;;29.68;23.67;100692.03;5000107;28;1212;-26
2022/12/09 05:57:24;;;;;;;;;;;;;;;29.75;23.74;100694.78;5006278;28;1251;-25
2022/12/09 05:59:49;;;;;;;;;;;;;;;29.78;23.74;100688.13;5018980;28;1173;-25
2022/12/09 06:02:15;;;;;;;;;;;;;;;29.84;23.74;100697.31;5019181;28;1306;-24
2022/12/09 06:04:40;;;;;;;;;;;;;;;29.92;23.58;100698.00;5019599;28;1315;-25
2022/12/09 06:07:05;;;;;;;;;;;;;;;30.01;23.29;100698.63;5019062;28;1220;-24
2022/12/09 06:09:30;;;;;;;;;;;;;;;29.94;23.41;100698.63;5004031;28;1898;-25
2022/12/09 06:11:56;;;;;;;;;;;;;;;30.00;23.42;100699.66;5012550;28;1357;-24
2022/12/09 06:14:21;;;;;;;;;;;;;;;30.13;23.20;100703.47;5016906;28;1136;-24
2022/12/09 06:16:46;;;;;;;;;;;;;;;30.13;23.32;100712.44;5009539;28;1432;-25
2022/12/09 06:19:14;;;;;;;;;;;;;;;30.17;23.26;100713.72;5019225;28;1211;-26
2022/12/09 06:21:40;;;;;;;;;;;;;;;30.11;23.33;100711.81;5018732;28;1231;-26
2022/12/09 06:24:05;;;;;;;;;;;;;;;30.22;23.30;100714.97;5019704;28;1144;-24
2022/12/09 06:26:30;;;;;;;;;;;;;;;30.30;23.09;100723.78;5018993;28;1156;-25
2022/12/09 06:28:56;;;;;;;;;;;;;;;30.31;23.14;100721.91;5019156;28;1143;-25
2022/12/09 06:31:21;;;;;;;;;;;;;;;30.42;22.92;100724.00;5018696;28;1981;-25
2022/12/09 06:33:47;;;;;;;;;;;;;;;30.46;22.88;100720.88;5018967;28;1172;-26
2022/12/09 06:36:12;;;;;;;;;;;;;;;30.52;22.90;100717.34;5019209;28;1254;-27
2022/12/09 06:38:37;;;;;;;;;;;;;;;30.56;22.97;100713.19;5018909;28;897;-26
2022/12/09 06:41:06;;;;;;;;;;;;;;;30.65;22.90;100716.50;5018832;28;1116;-24
2022/12/09 06:43:32;;;;;;;;;;;;;;;30.67;22.68;100711.72;5019018;28;1172;-26
2022/12/09 06:45:57;;;;;;;;;;;;;;;30.73;22.67;100719.00;5018972;28;1206;-26
2022/12/09 06:48:22;;;;;;;;;;;;;;;30.71;22.77;100728.41;5018879;28;1477;-25
2022/12/09 06:50:49;;;;;;;;;;;;;;;30.61;22.86;100726.13;5018147;28;1959;-29
2022/12/09 06:53:14;;;;;;;;;;;;;;;30.56;22.99;100729.47;5018919;28;1156;-25
2022/12/09 06:55:39;;;;;;;;;;;;;;;30.27;23.19;100729.63;5018575;28;1128;-23
2022/12/09 06:58:05;;;;;;;;;;;;;;;30.21;23.42;100744.00;5018539;28;1120;-26
2022/12/09 07:00:30;;;;;;;;;;;;;;;31.47;21.78;100747.19;5018258;28;1187;-24
2022/12/09 07:02:56;;;;;;;;;;;;;;;31.01;22.42;100744.34;5017812;28;900;-27
2022/12/09 07:05:21;;;;;;;;;;;;;;;30.83;22.69;100745.78;5018362;28;1215;-27
2022/12/09 07:07:50;;;;;;;;;;;;;;;30.75;22.89;100744.09;5016770;28;1229;-26
2022/12/09 07:10:16;;;;;;;;;;;;;;;30.62;23.01;100738.63;5017972;28;1959;-25
2022/12/09 07:12:41;;;;;;;;;;;;;;;30.54;22.52;100743.25;5017914;28;1195;-25
2022/12/09 07:15:07;;;;;;;;;;;;;;;30.54;23.15;100734.25;5017930;28;923;-25
2022/12/09 07:17:32;;;;;;;;;;;;;;;31.14;22.62;100741.59;5018678;28;1126;-25
2022/12/09 07:19:57;;;;;;;;;;;;;;;30.58;23.13;100746.34;5017979;28;1113;-28
2022/12/09 07:22:22;;;;;;;;;;;;;;;30.32;23.44;100748.00;5018109;28;1179;-24
2022/12/09 07:24:48;;;;;;;;;;;;;;;30.27;23.77;100750.47;5017895;28;1176;-24
2022/12/09 07:27:13;;;;;;;;;;;;;;;30.36;23.46;100749.28;5017945;28;902;-27
2022/12/09 07:29:38;;;;;;;;;;;;;;;30.62;23.30;100760.34;5017827;28;2006;-25
2022/12/09 07:32:04;;;;;;;;;;;;;;;30.55;23.10;100749.50;5013423;28;1085;-25
2022/12/09 07:34:30;;;;;;;;;;;;;;;29.97;23.94;100757.03;5009473;28;1052;-26
2022/12/09 07:36:55;;;;;;;;;;;;;;;30.12;23.85;100756.88;5008100;28;1203;-24
2022/12/09 07:39:21;;;;;;;;;;;;;;;30.35;23.50;100760.31;5016529;28;1096;-26
2022/12/09 07:41:53;;;;;;;;;;;;;;;30.77;23.09;100765.59;5010736;28;1236;-29
2022/12/09 07:44:18;;;;;;;;;;;;;;;30.05;23.83;100764.16;5009320;28;1034;-25
2022/12/09 07:46:43;;;;;;;;;;;;;;;29.93;24.27;100751.16;5010406;28;1298;-28
2022/12/09 07:49:09;;;;;;;;;;;;;;;30.26;23.75;100762.38;5027029;28;1977;-26
2022/12/09 07:51:34;;;;;;;;;;;;;;;30.62;23.37;100758.50;5015137;28;1148;-26
2022/12/09 07:53:59;;;;;;;;;;;;;;;30.21;23.52;100760.28;5015666;28;1139;-26
2022/12/09 07:56:26;;;;;;;;;;;;;;;29.64;24.33;100761.28;5017061;28;1151;-25
2022/12/09 07:58:52;;;;;;;;;;;;;;;30.21;23.88;100757.56;5017519;28;1124;-29
2022/12/09 08:01:21;;;;;;;;;;;;;;;30.59;23.21;100755.34;5017222;28;1160;-32
2022/12/09 08:03:47;;;;;;;;;;;;;;;30.33;23.45;100759.69;5017051;28;1060;-25
2022/12/09 08:06:16;;;;;;;;;;;;;;;29.68;24.24;100765.25;5017110;28;1100;-26
2022/12/09 08:08:41;;;;;;;;;;;;;;;30.19;23.96;100765.03;5017442;28;1211;-28
2022/12/09 08:11:25;;;;;;;;;;;;;;;30.39;23.71;100761.56;5017265;28;1890;-28
2022/12/09 08:13:51;;;;;;;;;;;;;;;30.30;23.58;100767.19;5016840;28;1097;-26
2022/12/09 08:16:17;;;;;;;;;;;;;;;29.30;24.57;100771.00;5016366;28;998;-25
2022/12/09 08:18:42;;;;;;;;;;;;;;;29.85;24.36;100761.34;5016659;28;1163;-24
2022/12/09 08:21:09;;;;;;;;;;;;;;;30.27;23.73;100770.31;5016934;28;1315;-26
2022/12/09 08:23:34;;;;;;;;;;;;;;;30.76;23.11;100764.75;5015561;28;1077;-24
2022/12/09 08:25:59;;;;;;;;;;;;;;;29.74;24.08;100754.63;5009081;28;1144;-24
2022/12/09 08:28:25;;;;;;;;;;;;;;;29.42;24.80;100761.31;4996454;28;1129;-24
2022/12/09 08:30:50;;;;;;;;;;;;;;;30.35;23.68;100760.31;5007841;28;2043;-24
2022/12/09 08:33:15;;;;;;;;;;;;;;;30.37;23.44;100760.94;5016008;28;1039;-23
2022/12/09 08:35:41;;;;;;;;;;;;;;;29.79;24.30;100755.72;5014799;28;918;-24
2022/12/09 08:38:06;;;;;;;;;;;;;;;29.74;24.46;100755.47;5015682;28;842;-23
2022/12/09 08:40:31;;;;;;;;;;;;;;;30.25;23.91;100756.13;5012271;28;1042;-25
2022/12/09 08:42:57;;;;;;;;;;;;;;;30.54;23.37;100764.13;5014019;28;888;-27
2022/12/09 08:45:22;;;;;;;;;;;;;;;29.66;24.45;100758.34;5023359;28;1079;-23
2022/12/09 08:47:47;;;;;;;;;;;;;;;29.92;24.34;100743.25;5018644;28;1027;-24
2022/12/09 08:50:12;;;;;;;;;;;;;;;30.29;23.60;100742.97;5020152;28;1902;-25
2022/12/09 08:52:38;;;;;;;;;;;;;;;30.12;23.66;100750.63;5012941;28;864;-27
2022/12/09 08:55:03;;;;;;;;;;;;;;;29.51;24.52;100750.31;5018607;28;1401;-29
2022/12/09 08:57:28;;;;;;;;;;;;;;;29.92;24.29;100752.22;5021668;28;1334;-25
2022/12/09 08:59:54;;;;;;;;;;;;;;;30.38;23.47;100747.16;5018893;28;983;-26
2022/12/09 09:02:19;;;;;;;;;;;;;;;29.81;24.21;100744.66;5019857;28;919;-26
2022/12/09 09:04:44;;;;;;;;;;;;;;;29.38;24.93;100749.19;5019562;28;1005;-27
2022/12/09 09:07:10;;;;;;;;;;;;;;;30.17;23.88;100740.84;5019250;28;861;-27
2022/12/09 09:09:36;;;;;;;;;;;;;;;30.43;23.42;100727.53;5020060;28;1905;-27
2022/12/09 09:12:01;;;;;;;;;;;;;;;29.90;24.07;100718.19;5016228;28;846;-26
2022/12/09 09:14:26;;;;;;;;;;;;;;;29.38;24.86;100727.50;5007598;28;1228;-27
2022/12/09 09:16:51;;;;;;;;;;;;;;;30.22;23.84;100732.09;5017475;28;1252;-25
2022/12/09 09:19:18;;;;;;;;;;;;;;;30.29;23.54;100727.53;5021110;28;936;-24
2022/12/09 09:21:43;;;;;;;;;;;;;;;29.51;24.59;100715.91;5017156;28;849;-30
2022/12/09 09:24:13;;;;;;;;;;;;;;;29.95;24.23;100723.84;5019965;28;835;-23
2022/12/09 09:26:39;;;;;;;;;;;;;;;30.33;23.72;100724.41;5013870;28;849;-25
2022/12/09 09:29:04;;;;;;;;;;;;;;;29.99;23.83;100708.00;5017400;28;949;-28
2022/12/09 09:31:29;;;;;;;;;;;;;;;29.32;24.78;100714.78;5019281;28;1906;-25
2022/12/09 09:33:54;;;;;;;;;;;;;;;30.00;24.09;100713.22;5019814;28;1203;-26
2022/12/09 09:36:21;;;;;;;;;;;;;;;30.50;23.38;100713.97;5018691;28;1159;-26
2022/12/09 09:38:47;;;;;;;;;;;;;;;29.58;24.36;100702.38;5019538;28;1148;-25
2022/12/09 09:41:17;;;;;;;;;;;;;;;29.60;24.69;100708.47;5022839;28;916;-25
2022/12/09 09:43:43;;;;;;;;;;;;;;;30.27;23.81;100707.91;5006348;28;1184;-28
2022/12/09 09:46:08;;;;;;;;;;;;;;;29.88;24.10;100701.31;5019659;28;1123;-25
2022/12/09 09:48:33;;;;;;;;;;;;;;;29.45;24.52;100697.75;5022452;28;1156;-25
2022/12/09 09:51:19;;;;;;;;;;;;;;;30.12;23.94;100701.78;5022310;28;1973;-27
2022/12/09 09:53:44;;;;;;;;;;;;;;;30.04;23.95;100710.94;5016720;28;1342;-25
2022/12/09 09:56:25;;;;;;;;;;;;;;;29.51;24.34;100705.06;5017809;28;1302;-24
2022/12/09 09:58:53;;;;;;;;;;;;;;;30.15;24.04;100710.34;5019438;28;1279;-25
2022/12/09 10:01:18;;;;;;;;;;;;;;;30.26;23.69;100708.94;5018093;28;1616;-25
2022/12/09 10:03:52;;;;;;;;;;;;;;;29.63;24.41;100699.13;5018084;28;1255;-24
2022/12/09 10:06:27;;;;;;;;;;;;;;;30.14;24.13;100713.28;5018829;28;1240;-26
2022/12/09 10:08:57;;;;;;;;;;;;;;;30.01;23.92;100704.03;5019128;28;1172;-27
2022/12/09 10:11:24;;;;;;;;;;;;;;;29.53;24.53;100705.69;5016950;28;1898;-24
2022/12/09 10:13:55;;;;;;;;;;;;;;;30.17;24.42;100692.00;5018218;28;1235;-25
2022/12/09 10:16:33;;;;;;;;;;;;;;;30.13;23.90;100692.63;5018202;28;1354;-24
2022/12/09 10:18:58;;;;;;;;;;;;;;;29.51;24.57;100683.38;5017114;28;1248;-24
2022/12/09 10:21:26;;;;;;;;;;;;;;;30.12;24.32;100680.94;5018896;28;1235;-25
2022/12/09 10:23:51;;;;;;;;;;;;;;;29.96;24.08;100674.00;5018980;28;1286;-26
2022/12/09 10:26:18;;;;;;;;;;;;;;;29.48;24.61;100669.41;5016884;28;1388;-26
2022/12/09 10:28:45;;;;;;;;;;;;;;;29.89;24.46;100660.44;5014913;28;1319;-26
2022/12/09 10:31:10;;;;;;;;;;;;;;;30.02;24.08;100667.75;5018983;28;1887;-24
2022/12/09 10:33:36;;;;;;;;;;;;;;;29.53;24.51;100661.53;5019155;28;1203;-28
2022/12/09 10:36:01;;;;;;;;;;;;;;;30.03;24.20;100657.75;5017300;28;1424;-27
2022/12/09 10:38:27;;;;;;;;;;;;;;;30.36;23.88;100662.44;5015614;28;2420;-30
2022/12/09 10:40:55;;;;;;;;;;;;;;;29.65;24.42;100657.22;5015946;28;1756;-24
2022/12/09 10:43:34;;;;;;;;;;;;;;;29.81;24.65;100652.47;5018213;28;1679;-24
2022/12/09 10:45:59;;;;;;;;;;;;;;;30.21;24.20;100651.75;5017648;28;1981;-26
2022/12/09 10:48:36;;;;;;;;;;;;;;;29.69;24.45;100649.50;5016138;28;2076;-26
2022/12/09 10:51:10;;;;;;;;;;;;;;;29.60;24.97;100654.28;5009490;28;2068;-25
2022/12/09 10:53:35;;;;;;;;;;;;;;;30.15;24.18;100641.69;5017129;28;925;-25
2022/12/09 10:56:01;;;;;;;;;;;;;;;29.92;24.06;100641.03;5016693;28;1133;-25
2022/12/09 10:58:27;;;;;;;;;;;;;;;29.37;24.89;100627.47;5018523;28;1148;-27
2022/12/09 11:01:00;;;;;;;;;;;;;;;30.10;24.29;100634.16;5018262;28;1167;-26
2022/12/09 11:03:31;;;;;;;;;;;;;;;30.05;24.14;100628.53;5017699;28;1108;-26
2022/12/09 11:05:57;;;;;;;;;;;;;;;29.48;24.67;100618.75;5003463;28;1123;-27
2022/12/09 11:08:22;;;;;;;;;;;;;;;30.03;24.23;100619.78;5016694;28;1191;-24
2022/12/09 11:10:48;;;;;;;;;;;;;;;29.94;24.17;100616.41;5016101;28;1898;-26
2022/12/09 11:13:14;;;;;;;;;;;;;;;29.46;24.83;100613.53;5016806;28;1149;-25
2022/12/09 11:15:41;;;;;;;;;;;;;;;30.03;24.27;100607.03;5016462;28;1198;-26
2022/12/09 11:18:07;;;;;;;;;;;;;;;30.26;23.70;100619.41;5016603;28;1247;-26
2022/12/09 11:20:32;;;;;;;;;;;;;;;29.61;24.68;100609.88;5016171;28;1145;-24
2022/12/09 11:23:14;;;;;;;;;;;;;;;30.04;24.38;100618.72;5006194;28;2330;-25
2022/12/09 11:25:49;;;;;;;;;;;;;;;30.29;23.72;100613.59;5016363;28;1180;-25
2022/12/09 11:28:15;;;;;;;;;;;;;;;29.63;24.28;100613.22;5015887;28;1200;-25
2022/12/09 11:30:50;;;;;;;;;;;;;;;29.98;24.36;100612.25;5016579;28;1898;-25
2022/12/09 11:33:18;;;;;;;;;;;;;;;30.34;23.91;100603.97;5017522;28;1147;-24
2022/12/09 11:35:43;;;;;;;;;;;;;;;29.69;24.28;100600.72;5003379;28;1093;-24
2022/12/09 11:38:16;;;;;;;;;;;;;;;29.70;24.79;100583.41;5017761;28;1191;-23
2022/12/09 11:40:42;;;;;;;;;;;;;;;30.30;23.83;100587.25;5015798;28;1204;-23
2022/12/09 11:43:07;;;;;;;;;;;;;;;29.85;24.07;100576.97;5016404;28;1203;-24
2022/12/09 11:45:33;;;;;;;;;;;;;;;29.44;24.75;100577.69;5016595;28;1215;-24
2022/12/09 11:48:03;;;;;;;;;;;;;;;30.14;23.88;100583.91;5017550;28;1171;-24
2022/12/09 11:50:31;;;;;;;;;;;;;;;30.26;23.62;100573.28;5015322;28;1961;-24
2022/12/09 11:53:12;;;;;;;;;;;;;;;29.68;24.32;100574.63;5014882;28;910;-26
2022/12/09 11:55:47;;;;;;;;;;;;;;;30.11;24.12;100578.91;5029377;28;1221;-24
2022/12/09 11:58:17;;;;;;;;;;;;;;;30.36;23.72;100577.47;5016938;28;878;-23
2022/12/09 12:01:03;;;;;;;;;;;;;;;29.77;24.31;100575.28;5015003;28;1157;-24
2022/12/09 12:03:36;;;;;;;;;;;;;;;30.18;23.97;100585.16;5011805;28;1253;-26
2022/12/09 12:06:03;;;;;;;;;;;;;;;30.48;23.70;100574.94;5017446;28;1233;-23
2022/12/09 12:08:34;;;;;;;;;;;;;;;30.10;23.65;100577.22;5016601;28;1108;-22
2022/12/09 12:11:00;;;;;;;;;;;;;;;29.56;24.43;100577.91;5019219;28;1910;-24
2022/12/09 12:13:43;;;;;;;;;;;;;;;30.29;23.72;100572.03;5016525;28;880;-24
2022/12/09 12:16:23;;;;;;;;;;;;;;;30.30;23.62;100579.13;5014749;28;1275;-23
2022/12/09 12:18:50;;;;;;;;;;;;;;;29.64;24.40;100568.81;5015667;28;853;-24
2022/12/09 12:21:34;;;;;;;;;;;;;;;30.21;23.93;100580.38;5014681;28;1168;-26
2022/12/09 12:24:09;;;;;;;;;;;;;;;30.49;23.61;100585.59;5016464;28;1018;-26
2022/12/09 12:26:37;;;;;;;;;;;;;;;29.77;24.18;100575.28;5014340;28;1251;-24
2022/12/09 12:29:12;;;;;;;;;;;;;;;30.13;24.16;100576.78;5019788;28;1191;-25
2022/12/09 12:31:37;;;;;;;;;;;;;;;30.45;23.75;100578.09;5029454;28;1982;-24
2022/12/09 12:34:14;;;;;;;;;;;;;;;30.10;23.78;100573.66;5021650;28;964;-26
2022/12/09 12:36:55;;;;;;;;;;;;;;;29.62;24.50;100578.16;5011234;28;1227;-25
2022/12/09 12:39:29;;;;;;;;;;;;;;;30.27;23.77;100585.81;5015137;28;1167;-24
2022/12/09 12:42:13;;;;;;;;;;;;;;;30.24;23.96;100585.38;5014896;28;1160;-25
2022/12/09 12:47:31;;;;;;;;;;;;;;;30.33;23.78;100583.31;5021535;28;891;-23
2022/12/09 12:50:15;;;;;;;;;;;;;;;30.31;23.63;100580.81;5017281;28;1902;-24